Foxy 3 — WDH4123 — position and weather

sailwx.info

Track history (hours):
 
Tides and Currents Weather Stations Pressure Air Temp Water Temp Dewpoint Dewpoint Depression Visibility Wind Speed Wind Dir Waves Ship Positions

Foxy 3

Owner: Fox Marine Corporation, Easton, PA. More information available from US FCC via Universal Licensing System and Coast Guard Vessel Documentation Center.

Last reported at 2018-Feb-20 14:48 UTC. Time now 2018-Feb-20 15:56 UTC.
Position N 40°39' W 074°07'.

MMSI: 367614410.

Date/timePositionNaut miles runAvg speedWind from/ knotsBaromVisibWave heightAir tempDewpointWater temp
2018-Feb-20 14:48N 40°39' W 074°07'0 0.0
2018-Feb-20 14:30N 40°39' W 074°07'0 0.8
2018-Feb-20 13:59N 40°39' W 074°07'0 0.0
2018-Feb-19 18:44N 40°39' W 074°07'1 4.8
2018-Feb-19 18:29N 40°39' W 074°06'3 5.7
2018-Feb-19 18:00N 40°37' W 074°03'4 6.9
2018-Feb-19 17:29N 40°34' W 074°00'12 2.6
2018-Feb-19 13:02N 40°35' W 073°45'1 9.1
2018-Feb-19 12:57N 40°35' W 073°46'3 7.1
2018-Feb-19 12:30N 40°34' W 073°50'4 7.5
2018-Feb-19 12:00N 40°33' W 073°55'3 5.0
2018-Feb-19 11:28N 40°33' W 073°58'3 6.6
2018-Feb-19 11:00N 40°35' W 074°01'4 8.8
2018-Feb-19 10:30N 40°39' W 074°04'2 0.1
2018-Feb-17 19:09N 40°39' W 074°07'1 6.3
2018-Feb-17 19:00N 40°39' W 074°06'3 5.7
2018-Feb-17 18:29N 40°37' W 074°03'13 2.7
2018-Feb-17 13:38N 40°35' W 073°46'1 4.7
2018-Feb-17 13:28N 40°35' W 073°46'1 1.3
2018-Feb-17 13:00N 40°34' W 073°47'2 3.2
2018-Feb-17 12:22N 40°34' W 073°49'3 7.7
2018-Feb-17 12:00N 40°33' W 073°53'4 6.8
2018-Feb-17 11:29N 40°33' W 073°57'3 6.4
2018-Feb-17 11:00N 40°34' W 074°01'4 8.2
2018-Feb-17 10:30N 40°38' W 074°03'3 5.6
2018-Feb-17 10:00N 40°39' W 074°07'0 0.0
2018-Feb-16 20:26N 40°39' W 074°07'1 1.0
2018-Feb-16 18:58N 40°38' W 074°09'2 3.6
2018-Feb-16 18:30N 40°39' W 074°07'3 5.9
2018-Feb-16 18:00N 40°40' W 074°03'1 2.6
2018-Feb-16 17:31N 40°41' W 074°02'3 5.6
2018-Feb-16 17:01N 40°42' W 073°59'3 5.6
2018-Feb-16 16:30N 40°45' W 073°58'3 6.1
2018-Feb-16 15:57N 40°48' W 073°55'2 3.6
2018-Feb-16 15:30N 40°48' W 073°53'2 3.5
2018-Feb-16 14:59N 40°48' W 073°50'1 1.7
2018-Feb-16 14:22N 40°49' W 073°49'3 7.7
2018-Feb-16 14:00N 40°48' W 073°52'2 4.2
2018-Feb-16 13:30N 40°46' W 073°51'0 0.6
2018-Feb-16 12:48N 40°46' W 073°50'2 3.8
2018-Feb-16 12:23N 40°47' W 073°52'1 3.6
2018-Feb-16 12:00N 40°48' W 073°51'3 5.0
2018-Feb-16 11:28N 40°48' W 073°54'510.9
2018-Feb-16 11:00N 40°44' W 073°58'5 9.3
2018-Feb-16 10:31N 40°41' W 074°02'4 7.4
2018-Feb-16 10:00N 40°39' W 074°06'1 0.0
2018-Feb-15 04:22N 40°39' W 074°05'3 8.9
2018-Feb-15 04:01N 40°40' W 074°01'0 0.1
2018-Feb-15 03:30N 40°40' W 074°01'2 4.3
2018-Feb-15 03:01N 40°42' W 074°01'3 5.8
2018-Feb-15 02:30N 40°45' W 074°01'1 1.5
2018-Feb-15 02:00N 40°46' W 074°00'0 0.1
2018-Feb-15 01:29N 40°46' W 074°00'0 0.1
2018-Feb-15 01:00N 40°46' W 074°00'0 0.3
2018-Feb-15 00:31N 40°46' W 074°00'2 4.7
2018-Feb-15 00:00N 40°44' W 074°01'3 5.3
2018-Feb-14 23:31N 40°41' W 074°02'1 2.4
2018-Feb-14 23:00N 40°40' W 074°01'2 3.8
2018-Feb-14 22:30N 40°39' W 074°03'3 6.4
2018-Feb-14 22:00N 40°39' W 074°07'0 0.0
2018-Feb-14 21:26N 40°39' W 074°07'0 0.0
2018-Feb-14 21:01N 40°39' W 074°07'0 0.0
2018-Feb-14 20:30N 40°39' W 074°07'0 0.0
2018-Feb-14 20:01N 40°39' W 074°07'0 0.0
2018-Feb-14 19:30N 40°39' W 074°07'0 0.0
2018-Feb-14 19:00N 40°39' W 074°07'0 0.0
2018-Feb-14 18:31N 40°39' W 074°07'0 0.0
2018-Feb-14 17:59N 40°39' W 074°07'0 0.0
2018-Feb-14 17:29N 40°39' W 074°07'0 0.0
2018-Feb-14 17:00N 40°39' W 074°07'0 0.0
2018-Feb-14 16:30N 40°39' W 074°07'0 0.6
2018-Feb-14 15:59N 40°39' W 074°07'3 5.4
2018-Feb-14 15:30N 40°38' W 074°04'3 6.8
2018-Feb-14 15:00N 40°35' W 074°02'13 2.8
2018-Feb-14 10:27N 40°35' W 073°45'4 8.3
2018-Feb-14 09:57N 40°34' W 073°50'4 8.1
2018-Feb-14 09:29N 40°33' W 073°55'3 5.0
2018-Feb-14 08:57N 40°34' W 073°58'3 6.9
2018-Feb-14 08:30N 40°35' W 074°02'4 7.9
2018-Feb-14 08:01N 40°39' W 074°04'2 0.2
2018-Feb-13 17:22N 40°39' W 074°07'2 6.5
2018-Feb-13 17:00N 40°39' W 074°04'3 6.5
2018-Feb-13 16:30N 40°36' W 074°02'3 5.4
2018-Feb-13 15:59N 40°34' W 073°60'10 1.9
2018-Feb-13 10:49N 40°35' W 073°47'2 5.4
2018-Feb-13 10:29N 40°34' W 073°49'4 7.4
2018-Feb-13 10:00N 40°33' W 073°53'3 6.1
2018-Feb-13 09:28N 40°33' W 073°58'3 6.4
2018-Feb-13 09:00N 40°34' W 074°01'4 8.4
2018-Feb-13 08:30N 40°38' W 074°04'3 5.4
2018-Feb-13 08:00N 40°39' W 074°07'  
Track history (hours):
 
Tides and Currents Weather Stations Pressure Air Temp Water Temp Dewpoint Dewpoint Depression Visibility Wind Speed Wind Dir Waves Ship Positions

Foxy 3

Owner: Fox Marine Corporation, Easton, PA. More information available from US FCC via Universal Licensing System and Coast Guard Vessel Documentation Center.

Last reported at 2018-Feb-20 14:48 UTC. Time now 2018-Feb-20 15:56 UTC.
Position N 40°39' W 074°07'.

MMSI: 367614410.

Date/timePositionNaut miles runAvg speedWind from/ knotsBaromVisibWave heightAir tempDewpointWater temp
2018-Feb-20 14:48N 40°39' W 074°07'0 0.0
2018-Feb-20 14:30N 40°39' W 074°07'0 0.8
2018-Feb-20 13:59N 40°39' W 074°07'0 0.0
2018-Feb-19 18:44N 40°39' W 074°07'1 4.8
2018-Feb-19 18:29N 40°39' W 074°06'3 5.7
2018-Feb-19 18:00N 40°37' W 074°03'4 6.9
2018-Feb-19 17:29N 40°34' W 074°00'12 2.6
2018-Feb-19 13:02N 40°35' W 073°45'1 9.1
2018-Feb-19 12:57N 40°35' W 073°46'3 7.1
2018-Feb-19 12:30N 40°34' W 073°50'4 7.5
2018-Feb-19 12:00N 40°33' W 073°55'3 5.0
2018-Feb-19 11:28N 40°33' W 073°58'3 6.6
2018-Feb-19 11:00N 40°35' W 074°01'4 8.8
2018-Feb-19 10:30N 40°39' W 074°04'2 0.1
2018-Feb-17 19:09N 40°39' W 074°07'1 6.3
2018-Feb-17 19:00N 40°39' W 074°06'3 5.7
2018-Feb-17 18:29N 40°37' W 074°03'13 2.7
2018-Feb-17 13:38N 40°35' W 073°46'1 4.7
2018-Feb-17 13:28N 40°35' W 073°46'1 1.3
2018-Feb-17 13:00N 40°34' W 073°47'2 3.2
2018-Feb-17 12:22N 40°34' W 073°49'3 7.7
2018-Feb-17 12:00N 40°33' W 073°53'4 6.8
2018-Feb-17 11:29N 40°33' W 073°57'3 6.4
2018-Feb-17 11:00N 40°34' W 074°01'4 8.2
2018-Feb-17 10:30N 40°38' W 074°03'3 5.6
2018-Feb-17 10:00N 40°39' W 074°07'0 0.0
2018-Feb-16 20:26N 40°39' W 074°07'1 1.0
2018-Feb-16 18:58N 40°38' W 074°09'2 3.6
2018-Feb-16 18:30N 40°39' W 074°07'3 5.9
2018-Feb-16 18:00N 40°40' W 074°03'1 2.6
2018-Feb-16 17:31N 40°41' W 074°02'3 5.6
2018-Feb-16 17:01N 40°42' W 073°59'3 5.6
2018-Feb-16 16:30N 40°45' W 073°58'3 6.1
2018-Feb-16 15:57N 40°48' W 073°55'2 3.6
2018-Feb-16 15:30N 40°48' W 073°53'2 3.5
2018-Feb-16 14:59N 40°48' W 073°50'1 1.7
2018-Feb-16 14:22N 40°49' W 073°49'3 7.7
2018-Feb-16 14:00N 40°48' W 073°52'2 4.2
2018-Feb-16 13:30N 40°46' W 073°51'0 0.6
2018-Feb-16 12:48N 40°46' W 073°50'2 3.8
2018-Feb-16 12:23N 40°47' W 073°52'1 3.6
2018-Feb-16 12:00N 40°48' W 073°51'3 5.0
2018-Feb-16 11:28N 40°48' W 073°54'510.9
2018-Feb-16 11:00N 40°44' W 073°58'5 9.3
2018-Feb-16 10:31N 40°41' W 074°02'4 7.4
2018-Feb-16 10:00N 40°39' W 074°06'1 0.0
2018-Feb-15 04:22N 40°39' W 074°05'3 8.9
2018-Feb-15 04:01N 40°40' W 074°01'0 0.1
2018-Feb-15 03:30N 40°40' W 074°01'2 4.3
2018-Feb-15 03:01N 40°42' W 074°01'3 5.8
2018-Feb-15 02:30N 40°45' W 074°01'1 1.5
2018-Feb-15 02:00N 40°46' W 074°00'0 0.1
2018-Feb-15 01:29N 40°46' W 074°00'0 0.1
2018-Feb-15 01:00N 40°46' W 074°00'0 0.3
2018-Feb-15 00:31N 40°46' W 074°00'2 4.7
2018-Feb-15 00:00N 40°44' W 074°01'3 5.3
2018-Feb-14 23:31N 40°41' W 074°02'1 2.4
2018-Feb-14 23:00N 40°40' W 074°01'2 3.8
2018-Feb-14 22:30N 40°39' W 074°03'3 6.4
2018-Feb-14 22:00N 40°39' W 074°07'0 0.0
2018-Feb-14 21:26N 40°39' W 074°07'0 0.0
2018-Feb-14 21:01N 40°39' W 074°07'0 0.0
2018-Feb-14 20:30N 40°39' W 074°07'0 0.0
2018-Feb-14 20:01N 40°39' W 074°07'0 0.0
2018-Feb-14 19:30N 40°39' W 074°07'0 0.0
2018-Feb-14 19:00N 40°39' W 074°07'0 0.0
2018-Feb-14 18:31N 40°39' W 074°07'0 0.0
2018-Feb-14 17:59N 40°39' W 074°07'0 0.0
2018-Feb-14 17:29N 40°39' W 074°07'0 0.0
2018-Feb-14 17:00N 40°39' W 074°07'0 0.0
2018-Feb-14 16:30N 40°39' W 074°07'0 0.6
2018-Feb-14 15:59N 40°39' W 074°07'3 5.4
2018-Feb-14 15:30N 40°38' W 074°04'3 6.8
2018-Feb-14 15:00N 40°35' W 074°02'13 2.8
2018-Feb-14 10:27N 40°35' W 073°45'4 8.3
2018-Feb-14 09:57N 40°34' W 073°50'4 8.1
2018-Feb-14 09:29N 40°33' W 073°55'3 5.0
2018-Feb-14 08:57N 40°34' W 073°58'3 6.9
2018-Feb-14 08:30N 40°35' W 074°02'4 7.9
2018-Feb-14 08:01N 40°39' W 074°04'2 0.2
2018-Feb-13 17:22N 40°39' W 074°07'2 6.5
2018-Feb-13 17:00N 40°39' W 074°04'3 6.5
2018-Feb-13 16:30N 40°36' W 074°02'3 5.4
2018-Feb-13 15:59N 40°34' W 073°60'10 1.9
2018-Feb-13 10:49N 40°35' W 073°47'2 5.4
2018-Feb-13 10:29N 40°34' W 073°49'4 7.4
2018-Feb-13 10:00N 40°33' W 073°53'3 6.1
2018-Feb-13 09:28N 40°33' W 073°58'3 6.4
2018-Feb-13 09:00N 40°34' W 074°01'4 8.4
2018-Feb-13 08:30N 40°38' W 074°04'3 5.4
2018-Feb-13 08:00N 40°39' W 074°07'  

Dump ship's entire track history